sensor_id;sensor_type;location;lat;lon;timestamp;temperature;humidity
8994;DHT22;4532;50.886;4.700;2023-06-26T00:00:32;28.10;91.10
8994;DHT22;4532;50.886;4.700;2023-06-26T00:03:02;28.10;91.10
8994;DHT22;4532;50.886;4.700;2023-06-26T00:05:29;28.10;91.10
8994;DHT22;4532;50.886;4.700;2023-06-26T00:07:59;28.00;91.00
8994;DHT22;4532;50.886;4.700;2023-06-26T00:10:27;28.00;91.00
8994;DHT22;4532;50.886;4.700;2023-06-26T00:12:59;28.00;91.00
8994;DHT22;4532;50.886;4.700;2023-06-26T00:15:32;27.90;91.00
8994;DHT22;4532;50.886;4.700;2023-06-26T00:17:59;27.90;91.00
8994;DHT22;4532;50.886;4.700;2023-06-26T00:20:26;27.90;91.10
8994;DHT22;4532;50.886;4.700;2023-06-26T00:22:59;27.80;91.00
8994;DHT22;4532;50.886;4.700;2023-06-26T00:25:26;27.80;91.00
8994;DHT22;4532;50.886;4.700;2023-06-26T00:27:53;27.70;91.00
8994;DHT22;4532;50.886;4.700;2023-06-26T00:30:23;27.70;90.90
8994;DHT22;4532;50.886;4.700;2023-06-26T00:32:54;27.70;91.00
8994;DHT22;4532;50.886;4.700;2023-06-26T00:35:22;27.60;91.00
8994;DHT22;4532;50.886;4.700;2023-06-26T00:37:49;27.60;91.00
8994;DHT22;4532;50.886;4.700;2023-06-26T00:40:16;27.60;91.00
8994;DHT22;4532;50.886;4.700;2023-06-26T00:42:46;27.50;91.10
8994;DHT22;4532;50.886;4.700;2023-06-26T00:45:20;27.50;91.20
8994;DHT22;4532;50.886;4.700;2023-06-26T00:48:04;27.50;91.20
8994;DHT22;4532;50.886;4.700;2023-06-26T00:50:35;27.40;91.10
8994;DHT22;4532;50.886;4.700;2023-06-26T00:53:02;27.40;91.20
8994;DHT22;4532;50.886;4.700;2023-06-26T00:55:30;27.40;91.20
8994;DHT22;4532;50.886;4.700;2023-06-26T00:58:00;27.40;91.60
8994;DHT22;4532;50.886;4.700;2023-06-26T01:00:27;27.30;91.30
8994;DHT22;4532;50.886;4.700;2023-06-26T01:02:55;27.30;91.40
8994;DHT22;4532;50.886;4.700;2023-06-26T01:05:30;27.20;91.50
8994;DHT22;4532;50.886;4.700;2023-06-26T01:07:58;27.10;91.40
8994;DHT22;4532;50.886;4.700;2023-06-26T01:10:29;27.10;91.40
8994;DHT22;4532;50.886;4.700;2023-06-26T01:12:59;27.00;91.20
8994;DHT22;4532;50.886;4.700;2023-06-26T01:15:26;27.00;91.20
8994;DHT22;4532;50.886;4.700;2023-06-26T01:17:53;26.90;91.20
8994;DHT22;4532;50.886;4.700;2023-06-26T01:20:22;26.90;91.10
8994;DHT22;4532;50.886;4.700;2023-06-26T01:28:11;26.70;91.20
8994;DHT22;4532;50.886;4.700;2023-06-26T01:30:43;26.60;91.00
8994;DHT22;4532;50.886;4.700;2023-06-26T01:33:16;26.50;91.00
8994;DHT22;4532;50.886;4.700;2023-06-26T01:35:45;26.50;91.50
8994;DHT22;4532;50.886;4.700;2023-06-26T01:38:15;26.40;91.10
8994;DHT22;4532;50.886;4.700;2023-06-26T01:40:43;26.30;91.00
8994;DHT22;4532;50.886;4.700;2023-06-26T01:51:38;26.20;91.20
8994;DHT22;4532;50.886;4.700;2023-06-26T01:54:18;26.10;91.00
8994;DHT22;4532;50.886;4.700;2023-06-26T01:56:52;26.10;91.10
8994;DHT22;4532;50.886;4.700;2023-06-26T01:59:28;26.00;90.90
8994;DHT22;4532;50.886;4.700;2023-06-26T02:01:56;26.00;91.00
8994;DHT22;4532;50.886;4.700;2023-06-26T02:04:23;25.90;90.90
8994;DHT22;4532;50.886;4.700;2023-06-26T02:06:55;25.90;91.00
8994;DHT22;4532;50.886;4.700;2023-06-26T02:09:28;25.90;91.00
8994;DHT22;4532;50.886;4.700;2023-06-26T02:11:58;25.90;91.00
8994;DHT22;4532;50.886;4.700;2023-06-26T02:14:27;25.80;91.00
8994;DHT22;4532;50.886;4.700;2023-06-26T02:16:54;25.80;91.10
8994;DHT22;4532;50.886;4.700;2023-06-26T02:19:24;25.70;91.10
8994;DHT22;4532;50.886;4.700;2023-06-26T02:21:51;25.70;91.10
8994;DHT22;4532;50.886;4.700;2023-06-26T02:24:19;25.70;91.10
8994;DHT22;4532;50.886;4.700;2023-06-26T02:26:48;25.60;91.10
8994;DHT22;4532;50.886;4.700;2023-06-26T02:29:18;25.60;91.30
8994;DHT22;4532;50.886;4.700;2023-06-26T02:31:45;25.60;91.20
8994;DHT22;4532;50.886;4.700;2023-06-26T02:34:15;25.60;91.20
8994;DHT22;4532;50.886;4.700;2023-06-26T02:36:45;25.50;91.20
8994;DHT22;4532;50.886;4.700;2023-06-26T02:39:12;25.50;91.30
8994;DHT22;4532;50.886;4.700;2023-06-26T02:41:41;25.40;91.30
8994;DHT22;4532;50.886;4.700;2023-06-26T02:44:12;25.40;91.40
8994;DHT22;4532;50.886;4.700;2023-06-26T02:46:41;25.30;91.40
8994;DHT22;4532;50.886;4.700;2023-06-26T02:49:08;25.30;91.50
8994;DHT22;4532;50.886;4.700;2023-06-26T02:51:40;25.30;91.50
8994;DHT22;4532;50.886;4.700;2023-06-26T02:54:12;25.30;91.60
8994;DHT22;4532;50.886;4.700;2023-06-26T02:56:39;25.30;91.60
8994;DHT22;4532;50.886;4.700;2023-06-26T02:59:14;25.20;91.60
8994;DHT22;4532;50.886;4.700;2023-06-26T03:01:46;25.20;91.70
8994;DHT22;4532;50.886;4.700;2023-06-26T03:04:16;25.10;91.80
8994;DHT22;4532;50.886;4.700;2023-06-26T03:06:50;25.10;91.80
8994;DHT22;4532;50.886;4.700;2023-06-26T03:09:20;25.10;91.90
8994;DHT22;4532;50.886;4.700;2023-06-26T03:11:50;25.10;91.90
8994;DHT22;4532;50.886;4.700;2023-06-26T03:14:20;25.00;91.90
8994;DHT22;4532;50.886;4.700;2023-06-26T03:16:47;25.00;91.90
8994;DHT22;4532;50.886;4.700;2023-06-26T03:19:17;25.00;92.20
8994;DHT22;4532;50.886;4.700;2023-06-26T03:21:44;25.00;92.00
8994;DHT22;4532;50.886;4.700;2023-06-26T03:24:17;25.00;92.00
8994;DHT22;4532;50.886;4.700;2023-06-26T03:26:44;25.00;92.10
8994;DHT22;4532;50.886;4.700;2023-06-26T03:29:11;25.00;92.20
8994;DHT22;4532;50.886;4.700;2023-06-26T03:31:39;24.90;92.30
8994;DHT22;4532;50.886;4.700;2023-06-26T03:34:06;24.90;92.30
8994;DHT22;4532;50.886;4.700;2023-06-26T03:36:36;24.90;92.30
8994;DHT22;4532;50.886;4.700;2023-06-26T03:39:05;24.90;92.30
8994;DHT22;4532;50.886;4.700;2023-06-26T03:41:35;24.90;92.50
8994;DHT22;4532;50.886;4.700;2023-06-26T03:44:02;24.80;92.50
8994;DHT22;4532;50.886;4.700;2023-06-26T03:46:30;24.80;92.50
8994;DHT22;4532;50.886;4.700;2023-06-26T03:48:57;24.70;92.60
8994;DHT22;4532;50.886;4.700;2023-06-26T03:51:26;24.70;92.50
8994;DHT22;4532;50.886;4.700;2023-06-26T03:53:53;24.70;92.60
8994;DHT22;4532;50.886;4.700;2023-06-26T03:56:28;24.60;92.60
8994;DHT22;4532;50.886;4.700;2023-06-26T03:58:56;24.60;92.70
8994;DHT22;4532;50.886;4.700;2023-06-26T04:01:23;24.60;92.80
8994;DHT22;4532;50.886;4.700;2023-06-26T04:03:50;24.50;93.00
8994;DHT22;4532;50.886;4.700;2023-06-26T04:06:17;24.50;92.70
8994;DHT22;4532;50.886;4.700;2023-06-26T04:08:47;24.40;92.70
8994;DHT22;4532;50.886;4.700;2023-06-26T04:11:15;24.40;92.80
8994;DHT22;4532;50.886;4.700;2023-06-26T04:13:42;24.30;92.70
8994;DHT22;4532;50.886;4.700;2023-06-26T04:16:11;24.30;92.70
8994;DHT22;4532;50.886;4.700;2023-06-26T04:18:39;24.30;92.80
8994;DHT22;4532;50.886;4.700;2023-06-26T04:21:07;24.20;92.70
8994;DHT22;4532;50.886;4.700;2023-06-26T04:23:40;24.20;92.80
8994;DHT22;4532;50.886;4.700;2023-06-26T04:26:10;24.20;92.90
8994;DHT22;4532;50.886;4.700;2023-06-26T04:28:43;24.20;92.90
8994;DHT22;4532;50.886;4.700;2023-06-26T04:31:13;24.10;93.30
8994;DHT22;4532;50.886;4.700;2023-06-26T04:33:40;24.10;92.90
8994;DHT22;4532;50.886;4.700;2023-06-26T04:36:10;24.10;92.90
8994;DHT22;4532;50.886;4.700;2023-06-26T04:38:38;24.10;93.00
8994;DHT22;4532;50.886;4.700;2023-06-26T04:41:05;24.10;93.00
8994;DHT22;4532;50.886;4.700;2023-06-26T04:43:32;24.10;93.00
8994;DHT22;4532;50.886;4.700;2023-06-26T04:46:02;24.00;92.90
8994;DHT22;4532;50.886;4.700;2023-06-26T04:48:32;24.00;93.00
8994;DHT22;4532;50.886;4.700;2023-06-26T04:51:02;24.00;93.20
8994;DHT22;4532;50.886;4.700;2023-06-26T04:53:29;23.90;93.10
8994;DHT22;4532;50.886;4.700;2023-06-26T04:55:56;23.90;93.00
8994;DHT22;4532;50.886;4.700;2023-06-26T04:58:23;23.90;93.10
8994;DHT22;4532;50.886;4.700;2023-06-26T05:00:56;23.90;93.10
8994;DHT22;4532;50.886;4.700;2023-06-26T05:03:28;23.90;93.30
8994;DHT22;4532;50.886;4.700;2023-06-26T05:05:58;23.90;93.10
8994;DHT22;4532;50.886;4.700;2023-06-26T05:08:27;23.90;93.20
8994;DHT22;4532;50.886;4.700;2023-06-26T05:10:56;23.80;93.40
8994;DHT22;4532;50.886;4.700;2023-06-26T05:13:25;23.70;93.20
8994;DHT22;4532;50.886;4.700;2023-06-26T05:15:53;23.70;93.10
8994;DHT22;4532;50.886;4.700;2023-06-26T05:18:22;23.70;93.10
8994;DHT22;4532;50.886;4.700;2023-06-26T05:20:52;23.70;93.10
8994;DHT22;4532;50.886;4.700;2023-06-26T05:23:19;23.70;93.20
8994;DHT22;4532;50.886;4.700;2023-06-26T05:25:52;23.60;93.00
8994;DHT22;4532;50.886;4.700;2023-06-26T05:28:23;23.60;93.10
8994;DHT22;4532;50.886;4.700;2023-06-26T05:30:55;23.70;93.00
8994;DHT22;4532;50.886;4.700;2023-06-26T05:33:24;23.60;93.00
8994;DHT22;4532;50.886;4.700;2023-06-26T05:35:53;23.60;92.90
8994;DHT22;4532;50.886;4.700;2023-06-26T05:38:20;23.60;93.00
8994;DHT22;4532;50.886;4.700;2023-06-26T05:40:50;23.60;93.00
8994;DHT22;4532;50.886;4.700;2023-06-26T05:43:18;23.50;93.00
8994;DHT22;4532;50.886;4.700;2023-06-26T05:45:57;23.50;92.80
8994;DHT22;4532;50.886;4.700;2023-06-26T05:48:29;23.50;92.90
8994;DHT22;4532;50.886;4.700;2023-06-26T05:50:57;23.40;92.70
8994;DHT22;4532;50.886;4.700;2023-06-26T05:53:25;23.40;92.70
8994;DHT22;4532;50.886;4.700;2023-06-26T05:55:52;23.40;92.70
8994;DHT22;4532;50.886;4.700;2023-06-26T05:58:23;23.40;92.60
8994;DHT22;4532;50.886;4.700;2023-06-26T06:00:50;23.40;92.80
8994;DHT22;4532;50.886;4.700;2023-06-26T06:03:20;23.30;92.70
8994;DHT22;4532;50.886;4.700;2023-06-26T06:05:50;23.30;92.70
8994;DHT22;4532;50.886;4.700;2023-06-26T06:08:20;23.20;92.90
8994;DHT22;4532;50.886;4.700;2023-06-26T06:10:47;23.20;92.80
8994;DHT22;4532;50.886;4.700;2023-06-26T06:13:17;23.10;92.80
8994;DHT22;4532;50.886;4.700;2023-06-26T06:15:46;23.10;93.10
8994;DHT22;4532;50.886;4.700;2023-06-26T06:18:17;23.00;92.70
8994;DHT22;4532;50.886;4.700;2023-06-26T06:20:44;23.00;92.70
8994;DHT22;4532;50.886;4.700;2023-06-26T06:23:13;23.00;92.60
8994;DHT22;4532;50.886;4.700;2023-06-26T06:25:41;23.00;92.70
8994;DHT22;4532;50.886;4.700;2023-06-26T06:28:08;23.00;93.00
8994;DHT22;4532;50.886;4.700;2023-06-26T06:30:35;22.90;92.80
8994;DHT22;4532;50.886;4.700;2023-06-26T06:33:14;22.90;92.80
8994;DHT22;4532;50.886;4.700;2023-06-26T06:35:41;22.90;92.70
8994;DHT22;4532;50.886;4.700;2023-06-26T06:38:11;22.90;92.70
8994;DHT22;4532;50.886;4.700;2023-06-26T06:40:38;22.90;93.00
8994;DHT22;4532;50.886;4.700;2023-06-26T06:43:06;22.90;92.80
8994;DHT22;4532;50.886;4.700;2023-06-26T06:45:33;22.90;92.70
8994;DHT22;4532;50.886;4.700;2023-06-26T06:48:05;22.90;92.80
8994;DHT22;4532;50.886;4.700;2023-06-26T06:50:35;22.90;92.70
8994;DHT22;4532;50.886;4.700;2023-06-26T06:53:03;22.90;92.70
8994;DHT22;4532;50.886;4.700;2023-06-26T06:55:32;22.90;92.80
8994;DHT22;4532;50.886;4.700;2023-06-26T06:58:04;22.90;92.70
8994;DHT22;4532;50.886;4.700;2023-06-26T07:00:34;22.90;92.70
8994;DHT22;4532;50.886;4.700;2023-06-26T07:03:04;22.90;92.80
8994;DHT22;4532;50.886;4.700;2023-06-26T07:05:31;22.90;92.80
8994;DHT22;4532;50.886;4.700;2023-06-26T07:07:58;22.90;92.70
8994;DHT22;4532;50.886;4.700;2023-06-26T07:10:31;22.90;93.00
8994;DHT22;4532;50.886;4.700;2023-06-26T07:13:02;22.90;92.70
8994;DHT22;4532;50.886;4.700;2023-06-26T07:15:31;22.90;92.70
8994;DHT22;4532;50.886;4.700;2023-06-26T07:18:00;22.90;92.80
8994;DHT22;4532;50.886;4.700;2023-06-26T07:20:28;22.90;92.70
8994;DHT22;4532;50.886;4.700;2023-06-26T07:22:55;22.90;92.70
8994;DHT22;4532;50.886;4.700;2023-06-26T07:25:22;22.90;92.70
8994;DHT22;4532;50.886;4.700;2023-06-26T07:27:49;22.90;92.70
8994;DHT22;4532;50.886;4.700;2023-06-26T07:30:21;22.90;92.70
8994;DHT22;4532;50.886;4.700;2023-06-26T07:32:49;22.90;92.90
8994;DHT22;4532;50.886;4.700;2023-06-26T07:35:16;23.00;92.70
8994;DHT22;4532;50.886;4.700;2023-06-26T07:37:50;23.00;92.70
8994;DHT22;4532;50.886;4.700;2023-06-26T07:40:17;23.00;92.80
8994;DHT22;4532;50.886;4.700;2023-06-26T07:42:44;23.00;92.80
8994;DHT22;4532;50.886;4.700;2023-06-26T07:45:16;23.00;92.70
8994;DHT22;4532;50.886;4.700;2023-06-26T07:47:46;23.00;92.80
8994;DHT22;4532;50.886;4.700;2023-06-26T07:50:14;23.00;92.70
8994;DHT22;4532;50.886;4.700;2023-06-26T07:52:49;23.10;92.80
8994;DHT22;4532;50.886;4.700;2023-06-26T07:55:16;23.10;92.80
8994;DHT22;4532;50.886;4.700;2023-06-26T07:57:49;23.20;92.80
8994;DHT22;4532;50.886;4.700;2023-06-26T08:00:19;23.20;92.80
8994;DHT22;4532;50.886;4.700;2023-06-26T08:02:48;23.20;92.70
8994;DHT22;4532;50.886;4.700;2023-06-26T08:05:18;23.20;92.70
8994;DHT22;4532;50.886;4.700;2023-06-26T08:07:46;23.20;92.70
8994;DHT22;4532;50.886;4.700;2023-06-26T08:10:18;23.20;92.80
8994;DHT22;4532;50.886;4.700;2023-06-26T08:12:48;23.20;92.80
8994;DHT22;4532;50.886;4.700;2023-06-26T08:15:17;23.20;92.70
8994;DHT22;4532;50.886;4.700;2023-06-26T08:17:50;23.30;92.70
8994;DHT22;4532;50.886;4.700;2023-06-26T08:20:20;23.30;92.70
8994;DHT22;4532;50.886;4.700;2023-06-26T08:22:50;23.20;92.70
8994;DHT22;4532;50.886;4.700;2023-06-26T08:25:19;23.30;92.70
8994;DHT22;4532;50.886;4.700;2023-06-26T08:27:49;23.20;92.80
8994;DHT22;4532;50.886;4.700;2023-06-26T08:30:22;23.30;92.80
8994;DHT22;4532;50.886;4.700;2023-06-26T08:32:52;23.20;92.80
8994;DHT22;4532;50.886;4.700;2023-06-26T08:35:19;23.30;92.80
8994;DHT22;4532;50.886;4.700;2023-06-26T08:37:49;23.30;92.70
8994;DHT22;4532;50.886;4.700;2023-06-26T08:40:18;23.30;92.70
8994;DHT22;4532;50.886;4.700;2023-06-26T08:42:48;23.30;92.60
8994;DHT22;4532;50.886;4.700;2023-06-26T08:45:22;23.30;92.70
8994;DHT22;4532;50.886;4.700;2023-06-26T08:47:58;23.40;92.80
8994;DHT22;4532;50.886;4.700;2023-06-26T08:50:30;23.30;92.80
8994;DHT22;4532;50.886;4.700;2023-06-26T08:55:57;23.40;92.70
8994;DHT22;4532;50.886;4.700;2023-06-26T08:58:24;23.40;92.70
8994;DHT22;4532;50.886;4.700;2023-06-26T09:00:55;23.50;92.80
8994;DHT22;4532;50.886;4.700;2023-06-26T09:03:25;23.50;92.70
8994;DHT22;4532;50.886;4.700;2023-06-26T09:05:53;23.50;92.70
8994;DHT22;4532;50.886;4.700;2023-06-26T09:08:22;23.60;92.80
8994;DHT22;4532;50.886;4.700;2023-06-26T09:10:52;23.60;92.70
8994;DHT22;4532;50.886;4.700;2023-06-26T09:13:19;23.60;92.70
8994;DHT22;4532;50.886;4.700;2023-06-26T09:15:56;23.70;92.70
8994;DHT22;4532;50.886;4.700;2023-06-26T09:18:23;23.70;92.70
8994;DHT22;4532;50.886;4.700;2023-06-26T09:20:51;23.70;92.70
8994;DHT22;4532;50.886;4.700;2023-06-26T09:23:21;23.70;92.60
8994;DHT22;4532;50.886;4.700;2023-06-26T09:25:54;23.80;92.50
8994;DHT22;4532;50.886;4.700;2023-06-26T09:28:25;23.80;92.50
8994;DHT22;4532;50.886;4.700;2023-06-26T09:30:55;23.80;92.50
8994;DHT22;4532;50.886;4.700;2023-06-26T09:33:35;23.90;92.60
8994;DHT22;4532;50.886;4.700;2023-06-26T09:36:20;23.90;92.60
8994;DHT22;4532;50.886;4.700;2023-06-26T09:38:48;23.90;92.60
8994;DHT22;4532;50.886;4.700;2023-06-26T09:41:23;23.90;92.50
8994;DHT22;4532;50.886;4.700;2023-06-26T09:43:51;24.00;92.50
8994;DHT22;4532;50.886;4.700;2023-06-26T09:46:27;24.00;92.50
8994;DHT22;4532;50.886;4.700;2023-06-26T09:49:24;24.00;92.50
8994;DHT22;4532;50.886;4.700;2023-06-26T09:51:51;24.10;92.40
8994;DHT22;4532;50.886;4.700;2023-06-26T09:54:22;24.10;92.50
8994;DHT22;4532;50.886;4.700;2023-06-26T09:57:06;24.10;92.50
8994;DHT22;4532;50.886;4.700;2023-06-26T09:59:34;24.20;92.50
8994;DHT22;4532;50.886;4.700;2023-06-26T10:02:01;24.20;92.50
8994;DHT22;4532;50.886;4.700;2023-06-26T10:04:35;24.30;92.60
8994;DHT22;4532;50.886;4.700;2023-06-26T10:07:05;24.30;92.40
8994;DHT22;4532;50.886;4.700;2023-06-26T10:09:34;24.40;92.50
8994;DHT22;4532;50.886;4.700;2023-06-26T10:12:06;24.40;92.40
8994;DHT22;4532;50.886;4.700;2023-06-26T10:14:41;24.40;92.20
8994;DHT22;4532;50.886;4.700;2023-06-26T10:17:17;24.40;92.10
8994;DHT22;4532;50.886;4.700;2023-06-26T10:19:49;24.50;92.30
8994;DHT22;4532;50.886;4.700;2023-06-26T10:22:20;24.50;92.30
8994;DHT22;4532;50.886;4.700;2023-06-26T10:24:55;24.50;91.90
8994;DHT22;4532;50.886;4.700;2023-06-26T10:27:33;24.40;91.80
8994;DHT22;4532;50.886;4.700;2023-06-26T10:30:12;24.40;91.90
8994;DHT22;4532;50.886;4.700;2023-06-26T10:32:45;24.40;91.70
8994;DHT22;4532;50.886;4.700;2023-06-26T10:35:16;24.30;91.50
8994;DHT22;4532;50.886;4.700;2023-06-26T10:37:50;24.40;91.60
8994;DHT22;4532;50.886;4.700;2023-06-26T10:40:46;24.40;91.50
8994;DHT22;4532;50.886;4.700;2023-06-26T10:43:16;24.50;91.60
8994;DHT22;4532;50.886;4.700;2023-06-26T10:45:47;24.50;91.60
8994;DHT22;4532;50.886;4.700;2023-06-26T10:48:19;24.50;91.30
8994;DHT22;4532;50.886;4.700;2023-06-26T10:50:48;24.50;91.40
8994;DHT22;4532;50.886;4.700;2023-06-26T10:56:01;24.50;91.30
8994;DHT22;4532;50.886;4.700;2023-06-26T11:03:44;24.50;91.20
8994;DHT22;4532;50.886;4.700;2023-06-26T11:06:21;24.50;91.00
8994;DHT22;4532;50.886;4.700;2023-06-26T11:09:13;24.60;91.10
8994;DHT22;4532;50.886;4.700;2023-06-26T11:14:21;24.60;91.00
8994;DHT22;4532;50.886;4.700;2023-06-26T11:16:51;24.70;91.20
8994;DHT22;4532;50.886;4.700;2023-06-26T11:19:19;24.70;91.10
8994;DHT22;4532;50.886;4.700;2023-06-26T11:21:47;24.70;91.00
8994;DHT22;4532;50.886;4.700;2023-06-26T11:24:16;24.80;91.20
8994;DHT22;4532;50.886;4.700;2023-06-26T11:26:46;24.80;91.40
8994;DHT22;4532;50.886;4.700;2023-06-26T11:29:13;24.80;91.00
8994;DHT22;4532;50.886;4.700;2023-06-26T11:31:41;24.80;91.10
8994;DHT22;4532;50.886;4.700;2023-06-26T11:34:16;24.90;91.10
8994;DHT22;4532;50.886;4.700;2023-06-26T11:36:43;24.90;91.00
8994;DHT22;4532;50.886;4.700;2023-06-26T11:39:17;24.90;91.00
8994;DHT22;4532;50.886;4.700;2023-06-26T11:41:47;25.00;91.00
8994;DHT22;4532;50.886;4.700;2023-06-26T11:44:14;25.00;90.90
8994;DHT22;4532;50.886;4.700;2023-06-26T11:46:47;25.00;90.90
8994;DHT22;4532;50.886;4.700;2023-06-26T11:49:17;25.00;90.90
8994;DHT22;4532;50.886;4.700;2023-06-26T11:51:46;25.00;90.70
8994;DHT22;4532;50.886;4.700;2023-06-26T11:54:29;25.00;90.60
8994;DHT22;4532;50.886;4.700;2023-06-26T11:56:58;25.00;90.50
8994;DHT22;4532;50.886;4.700;2023-06-26T11:59:36;25.00;90.00
8994;DHT22;4532;50.886;4.700;2023-06-26T12:02:08;25.00;90.50
8994;DHT22;4532;50.886;4.700;2023-06-26T12:04:41;25.10;90.50
8994;DHT22;4532;50.886;4.700;2023-06-26T12:07:09;25.10;90.60
8994;DHT22;4532;50.886;4.700;2023-06-26T12:09:42;25.20;90.50
8994;DHT22;4532;50.886;4.700;2023-06-26T12:12:20;25.20;90.40
8994;DHT22;4532;50.886;4.700;2023-06-26T12:14:47;25.20;90.40
8994;DHT22;4532;50.886;4.700;2023-06-26T12:17:15;25.20;90.40
8994;DHT22;4532;50.886;4.700;2023-06-26T12:19:48;25.20;90.50
8994;DHT22;4532;50.886;4.700;2023-06-26T12:22:17;25.30;90.20
8994;DHT22;4532;50.886;4.700;2023-06-26T12:24:49;25.30;90.30
8994;DHT22;4532;50.886;4.700;2023-06-26T12:27:18;25.30;90.00
8994;DHT22;4532;50.886;4.700;2023-06-26T12:29:54;25.30;90.20
8994;DHT22;4532;50.886;4.700;2023-06-26T12:32:24;25.30;90.00
8994;DHT22;4532;50.886;4.700;2023-06-26T12:34:57;25.30;90.00
8994;DHT22;4532;50.886;4.700;2023-06-26T12:37:26;25.30;90.30
8994;DHT22;4532;50.886;4.700;2023-06-26T12:40:00;25.30;90.00
8994;DHT22;4532;50.886;4.700;2023-06-26T12:42:35;25.30;90.10
8994;DHT22;4532;50.886;4.700;2023-06-26T12:45:11;25.40;90.10
8994;DHT22;4532;50.886;4.700;2023-06-26T12:48:07;25.30;89.20
8994;DHT22;4532;50.886;4.700;2023-06-26T12:50:44;25.40;89.40
8994;DHT22;4532;50.886;4.700;2023-06-26T12:53:20;25.40;89.40
8994;DHT22;4532;50.886;4.700;2023-06-26T12:55:47;25.40;89.30
8994;DHT22;4532;50.886;4.700;2023-06-26T12:58:17;25.40;89.80
8994;DHT22;4532;50.886;4.700;2023-06-26T13:00:50;25.40;89.50
8994;DHT22;4532;50.886;4.700;2023-06-26T13:03:17;25.40;89.60
8994;DHT22;4532;50.886;4.700;2023-06-26T13:05:50;25.50;89.70
8994;DHT22;4532;50.886;4.700;2023-06-26T13:08:17;25.40;88.60
8994;DHT22;4532;50.886;4.700;2023-06-26T13:10:49;25.40;88.10
8994;DHT22;4532;50.886;4.700;2023-06-26T13:13:18;25.40;89.00
8994;DHT22;4532;50.886;4.700;2023-06-26T13:15:48;25.50;88.50
8994;DHT22;4532;50.886;4.700;2023-06-26T13:18:15;25.50;89.10
8994;DHT22;4532;50.886;4.700;2023-06-26T13:20:45;25.50;88.90
8994;DHT22;4532;50.886;4.700;2023-06-26T13:23:15;25.60;89.10
8994;DHT22;4532;50.886;4.700;2023-06-26T13:25:43;25.60;88.80
8994;DHT22;4532;50.886;4.700;2023-06-26T13:28:11;25.60;88.90
8994;DHT22;4532;50.886;4.700;2023-06-26T13:30:41;25.60;88.50
8994;DHT22;4532;50.886;4.700;2023-06-26T13:33:08;25.60;88.60
8994;DHT22;4532;50.886;4.700;2023-06-26T13:35:39;25.70;88.80
8994;DHT22;4532;50.886;4.700;2023-06-26T13:38:12;25.70;88.80
8994;DHT22;4532;50.886;4.700;2023-06-26T13:40:41;25.70;88.60
8994;DHT22;4532;50.886;4.700;2023-06-26T13:43:08;25.80;88.70
8994;DHT22;4532;50.886;4.700;2023-06-26T13:45:38;25.80;88.60
8994;DHT22;4532;50.886;4.700;2023-06-26T13:48:05;25.80;88.10
8994;DHT22;4532;50.886;4.700;2023-06-26T13:50:33;25.80;88.70
8994;DHT22;4532;50.886;4.700;2023-06-26T13:53:20;25.80;88.80
8994;DHT22;4532;50.886;4.700;2023-06-26T13:55:49;25.90;88.80
8994;DHT22;4532;50.886;4.700;2023-06-26T13:58:16;25.90;88.70
8994;DHT22;4532;50.886;4.700;2023-06-26T14:00:52;26.00;88.50
8994;DHT22;4532;50.886;4.700;2023-06-26T14:03:22;26.00;88.60
8994;DHT22;4532;50.886;4.700;2023-06-26T14:05:49;26.00;88.00
8994;DHT22;4532;50.886;4.700;2023-06-26T14:08:19;26.00;87.80
8994;DHT22;4532;50.886;4.700;2023-06-26T14:10:49;26.00;88.30
8994;DHT22;4532;50.886;4.700;2023-06-26T14:13:16;26.10;88.30
8994;DHT22;4532;50.886;4.700;2023-06-26T14:15:45;26.10;88.80
8994;DHT22;4532;50.886;4.700;2023-06-26T14:18:12;26.10;88.10
8994;DHT22;4532;50.886;4.700;2023-06-26T14:20:41;26.20;88.70
8994;DHT22;4532;50.886;4.700;2023-06-26T14:23:11;26.30;88.60
8994;DHT22;4532;50.886;4.700;2023-06-26T14:25:38;26.30;88.70
8994;DHT22;4532;50.886;4.700;2023-06-26T14:28:05;26.40;88.60
8994;DHT22;4532;50.886;4.700;2023-06-26T14:30:33;26.40;88.10
8994;DHT22;4532;50.886;4.700;2023-06-26T14:33:00;26.40;87.60
8994;DHT22;4532;50.886;4.700;2023-06-26T14:35:32;26.40;87.70
8994;DHT22;4532;50.886;4.700;2023-06-26T14:38:02;26.40;87.60
8994;DHT22;4532;50.886;4.700;2023-06-26T14:40:30;26.30;87.70
8994;DHT22;4532;50.886;4.700;2023-06-26T14:42:57;26.40;87.90
8994;DHT22;4532;50.886;4.700;2023-06-26T14:45:25;26.30;87.00
8994;DHT22;4532;50.886;4.700;2023-06-26T14:47:55;26.20;86.60
8994;DHT22;4532;50.886;4.700;2023-06-26T14:50:22;26.30;87.00
8994;DHT22;4532;50.886;4.700;2023-06-26T14:52:49;26.30;87.10
8994;DHT22;4532;50.886;4.700;2023-06-26T14:55:21;26.30;87.50
8994;DHT22;4532;50.886;4.700;2023-06-26T14:57:51;26.30;87.10
8994;DHT22;4532;50.886;4.700;2023-06-26T15:00:19;26.40;87.60
8994;DHT22;4532;50.886;4.700;2023-06-26T15:02:54;26.40;87.70
8994;DHT22;4532;50.886;4.700;2023-06-26T15:05:30;26.50;87.70
8994;DHT22;4532;50.886;4.700;2023-06-26T15:08:01;26.50;87.10
8994;DHT22;4532;50.886;4.700;2023-06-26T15:10:30;26.50;87.00
8994;DHT22;4532;50.886;4.700;2023-06-26T15:13:00;26.60;87.40
8994;DHT22;4532;50.886;4.700;2023-06-26T15:15:29;26.60;87.10
8994;DHT22;4532;50.886;4.700;2023-06-26T15:17:59;26.60;87.20
8994;DHT22;4532;50.886;4.700;2023-06-26T15:20:28;26.60;87.40
8994;DHT22;4532;50.886;4.700;2023-06-26T15:22:55;26.60;86.90
8994;DHT22;4532;50.886;4.700;2023-06-26T15:25:27;26.60;86.10
8994;DHT22;4532;50.886;4.700;2023-06-26T15:27:55;26.60;84.60
8994;DHT22;4532;50.886;4.700;2023-06-26T15:30:22;26.50;86.00
8994;DHT22;4532;50.886;4.700;2023-06-26T15:32:49;26.50;85.90
8994;DHT22;4532;50.886;4.700;2023-06-26T15:35:16;26.50;85.40
8994;DHT22;4532;50.886;4.700;2023-06-26T15:37:49;26.50;85.50
8994;DHT22;4532;50.886;4.700;2023-06-26T15:40:19;26.50;86.00
8994;DHT22;4532;50.886;4.700;2023-06-26T15:42:53;26.40;85.60
8994;DHT22;4532;50.886;4.700;2023-06-26T15:45:22;26.40;85.10
8994;DHT22;4532;50.886;4.700;2023-06-26T15:47:52;26.40;85.40
8994;DHT22;4532;50.886;4.700;2023-06-26T15:50:26;26.30;84.90
8994;DHT22;4532;50.886;4.700;2023-06-26T15:52:57;26.30;85.20
8994;DHT22;4532;50.886;4.700;2023-06-26T15:55:26;26.30;85.50
8994;DHT22;4532;50.886;4.700;2023-06-26T15:57:55;26.30;85.60
8994;DHT22;4532;50.886;4.700;2023-06-26T16:00:29;26.30;85.50
8994;DHT22;4532;50.886;4.700;2023-06-26T16:02:58;26.30;85.50
8994;DHT22;4532;50.886;4.700;2023-06-26T16:05:28;26.30;85.20
8994;DHT22;4532;50.886;4.700;2023-06-26T16:07:58;26.30;85.50
8994;DHT22;4532;50.886;4.700;2023-06-26T16:10:27;26.20;85.20
8994;DHT22;4532;50.886;4.700;2023-06-26T16:12:56;26.20;85.40
8994;DHT22;4532;50.886;4.700;2023-06-26T16:15:25;26.20;85.30
8994;DHT22;4532;50.886;4.700;2023-06-26T16:17:55;26.20;85.30
8994;DHT22;4532;50.886;4.700;2023-06-26T16:20:22;26.20;85.10
8994;DHT22;4532;50.886;4.700;2023-06-26T16:22:52;26.20;85.00
8994;DHT22;4532;50.886;4.700;2023-06-26T16:25:19;26.10;85.10
8994;DHT22;4532;50.886;4.700;2023-06-26T16:27:46;26.10;85.20
8994;DHT22;4532;50.886;4.700;2023-06-26T16:30:16;26.10;85.40
8994;DHT22;4532;50.886;4.700;2023-06-26T16:32:44;26.10;86.40
8994;DHT22;4532;50.886;4.700;2023-06-26T16:35:12;26.20;86.10
8994;DHT22;4532;50.886;4.700;2023-06-26T16:37:43;26.20;86.10
8994;DHT22;4532;50.886;4.700;2023-06-26T16:40:18;26.20;86.20
8994;DHT22;4532;50.886;4.700;2023-06-26T16:42:50;26.20;86.20
8994;DHT22;4532;50.886;4.700;2023-06-26T16:45:19;26.20;86.20
8994;DHT22;4532;50.886;4.700;2023-06-26T16:47:47;26.10;86.10